Time;durP1;ratioP1;P1;durP2;ratioP2;P2;SDS_P1;SDS_P2;PMS_P1;PMS_P2;Temp;Humidity;BMP_temperature;BMP_pressure;BME280_temperature;BME280_humidity;BME280_pressure;Samples;Min_cycle;Max_cycle;Signal;HPM_P1;HPM_P2
2022/02/22 00:01:45;;;;;;;;;;;17.00;36.80;;;;;;8329412;28;20440;-49
2022/02/22 00:05:47;;;;;;;;;;;17.00;36.80;;;;;;8330206;28;19932;-51
2022/02/22 00:09:48;;;;;;;;;;;17.00;36.80;;;;;;8330261;28;20039;-50
2022/02/22 00:13:48;;;;;;;;;;;17.00;36.80;;;;;;8329685;28;19917;-53
2022/02/22 00:17:49;;;;;;;;;;;17.00;36.80;;;;;;8330428;28;19999;-50
2022/02/22 00:21:50;;;;;;;;;;;17.00;36.80;;;;;;8330274;28;19979;-52
2022/02/22 00:25:50;;;;;;;;;;;17.00;36.80;;;;;;8329529;28;19929;-52
2022/02/22 00:29:51;;;;;;;;;;;17.00;37.40;;;;;;8330016;28;20007;-49
2022/02/22 00:33:51;;;;;;;;;;;17.00;36.80;;;;;;8329882;28;20008;-49
2022/02/22 00:37:52;;;;;;;;;;;17.00;36.80;;;;;;8329509;28;20356;-49
2022/02/22 00:41:52;;;;;;;;;;;16.90;36.80;;;;;;8330049;28;20300;-50
2022/02/22 00:45:53;;;;;;;;;;;17.00;36.80;;;;;;8329815;28;19932;-48
2022/02/22 00:49:53;;;;;;;;;;;17.00;36.80;;;;;;8329151;28;19917;-50
2022/02/22 00:53:54;;;;;;;;;;;16.90;36.80;;;;;;8329790;28;19921;-48
2022/02/22 00:57:54;;;;;;;;;;;16.90;36.80;;;;;;8329883;28;19914;-50
2022/02/22 01:01:55;;;;;;;;;;;16.90;36.80;;;;;;8329041;28;19917;-48
2022/02/22 01:05:55;;;;;;;;;;;16.90;36.80;;;;;;8329323;28;20000;-49
2022/02/22 01:09:55;;;;;;;;;;;16.90;36.80;;;;;;8329342;28;19921;-47
2022/02/22 01:13:56;;;;;;;;;;;16.90;36.80;;;;;;8333941;28;19913;-47
2022/02/22 01:17:56;;;;;;;;;;;16.90;36.80;;;;;;8335628;28;19917;-49
2022/02/22 01:21:57;;;;;;;;;;;16.90;36.90;;;;;;8332456;28;20366;-49
2022/02/22 01:25:59;;;;;;;;;;;16.90;36.90;;;;;;8334641;28;19960;-49
2022/02/22 01:30:00;;;;;;;;;;;16.90;36.90;;;;;;8334892;28;19917;-48
2022/02/22 01:34:00;;;;;;;;;;;16.90;36.90;;;;;;8335329;28;20276;-49
2022/02/22 01:38:01;;;;;;;;;;;16.90;36.90;;;;;;8334624;28;19917;-50
2022/02/22 01:42:02;;;;;;;;;;;16.90;36.90;;;;;;8334676;28;20336;-50
2022/02/22 01:46:03;;;;;;;;;;;16.90;36.90;;;;;;8334553;28;19963;-53
2022/02/22 01:50:04;;;;;;;;;;;16.90;36.90;;;;;;8333959;28;20008;-50
2022/02/22 01:54:04;;;;;;;;;;;16.90;36.90;;;;;;8334150;28;20012;-49
2022/02/22 01:58:05;;;;;;;;;;;16.90;36.90;;;;;;8334422;28;19917;-50
2022/02/22 02:02:05;;;;;;;;;;;16.90;36.90;;;;;;8333664;28;19939;-49
2022/02/22 02:06:06;;;;;;;;;;;16.90;36.90;;;;;;8333818;28;20401;-50
2022/02/22 02:10:06;;;;;;;;;;;16.90;36.90;;;;;;8333414;28;20254;-50
2022/02/22 02:14:07;;;;;;;;;;;16.90;36.90;;;;;;8333190;28;20313;-50
2022/02/22 02:18:07;;;;;;;;;;;16.80;36.80;;;;;;8332465;28;20297;-50
2022/02/22 02:22:08;;;;;;;;;;;16.80;36.80;;;;;;8332017;28;20377;-47
2022/02/22 02:26:09;;;;;;;;;;;16.90;36.90;;;;;;8331967;28;20301;-48
2022/02/22 02:30:10;;;;;;;;;;;16.90;37.40;;;;;;8332882;28;19913;-51
2022/02/22 02:34:13;;;;;;;;;;;16.80;36.80;;;;;;8333219;28;20008;-47
2022/02/22 02:38:14;;;;;;;;;;;16.80;36.80;;;;;;8332638;28;19918;-48
2022/02/22 02:42:16;;;;;;;;;;;16.80;36.90;;;;;;8332787;28;20339;-47
2022/02/22 02:46:17;;;;;;;;;;;16.80;36.90;;;;;;8332916;28;20251;-49
2022/02/22 02:50:17;;;;;;;;;;;16.80;36.90;;;;;;8331041;28;19921;-51
2022/02/22 02:54:18;;;;;;;;;;;16.80;36.90;;;;;;8332710;28;19925;-49
2022/02/22 02:58:18;;;;;;;;;;;16.80;36.90;;;;;;8332552;28;20374;-50
2022/02/22 03:02:19;;;;;;;;;;;16.80;36.90;;;;;;8309728;28;20000;-49
2022/02/22 03:06:19;;;;;;;;;;;16.80;36.90;;;;;;8332309;28;19927;-53
2022/02/22 03:10:20;;;;;;;;;;;16.80;36.90;;;;;;8331826;28;19917;-48
2022/02/22 03:14:20;;;;;;;;;;;16.80;37.00;;;;;;8332770;28;19920;-49
2022/02/22 03:18:21;;;;;;;;;;;16.80;37.00;;;;;;8331744;28;19943;-50
2022/02/22 03:22:21;;;;;;;;;;;16.80;36.90;;;;;;8331047;28;19913;-51
2022/02/22 03:26:22;;;;;;;;;;;16.80;36.90;;;;;;8331162;28;20428;-48
2022/02/22 03:30:22;;;;;;;;;;;16.70;36.90;;;;;;8331436;28;19913;-50
2022/02/22 03:34:23;;;;;;;;;;;16.80;37.00;;;;;;8330350;28;19963;-50
2022/02/22 03:38:23;;;;;;;;;;;16.80;37.00;;;;;;8331098;28;19917;-49
2022/02/22 03:42:24;;;;;;;;;;;16.80;37.00;;;;;;8331157;28;19917;-50
2022/02/22 03:46:24;;;;;;;;;;;16.70;37.00;;;;;;8330388;28;20279;-49
2022/02/22 03:50:25;;;;;;;;;;;16.70;37.00;;;;;;8331364;28;19914;-53
2022/02/22 03:54:25;;;;;;;;;;;16.70;37.00;;;;;;8331455;28;19921;-51
2022/02/22 03:58:25;;;;;;;;;;;16.70;37.00;;;;;;8330139;28;19924;-49
2022/02/22 04:02:26;;;;;;;;;;;16.70;37.00;;;;;;8330573;28;19963;-50
2022/02/22 04:06:26;;;;;;;;;;;16.70;37.00;;;;;;8330486;28;20389;-50
2022/02/22 04:10:27;;;;;;;;;;;16.70;37.00;;;;;;8329978;28;19918;-51
2022/02/22 04:14:27;;;;;;;;;;;16.70;37.10;;;;;;8330649;28;19920;-53
2022/02/22 04:18:28;;;;;;;;;;;16.70;37.10;;;;;;8330447;28;19921;-49
2022/02/22 04:22:28;;;;;;;;;;;16.70;37.10;;;;;;8329610;28;19925;-48
2022/02/22 04:26:29;;;;;;;;;;;16.70;37.10;;;;;;8330159;28;19925;-50
2022/02/22 04:30:29;;;;;;;;;;;16.70;37.20;;;;;;8330122;28;19917;-49
2022/02/22 04:34:30;;;;;;;;;;;16.70;37.20;;;;;;8329679;28;20008;-48
2022/02/22 04:38:30;;;;;;;;;;;16.70;37.20;;;;;;8330444;28;19940;-49
2022/02/22 04:42:30;;;;;;;;;;;16.70;37.10;;;;;;8329949;28;19921;-50
2022/02/22 04:46:31;;;;;;;;;;;16.70;37.10;;;;;;8330779;28;19933;-49
2022/02/22 04:50:31;;;;;;;;;;;16.70;37.20;;;;;;8336363;28;19948;-49
2022/02/22 04:54:32;;;;;;;;;;;16.70;37.10;;;;;;8336581;28;19944;-49
2022/02/22 04:58:32;;;;;;;;;;;16.70;37.10;;;;;;8335685;28;19924;-48
2022/02/22 05:02:33;;;;;;;;;;;16.70;37.20;;;;;;8335977;28;19940;-49
2022/02/22 05:06:33;;;;;;;;;;;16.70;37.10;;;;;;8335756;28;19975;-50
2022/02/22 05:10:34;;;;;;;;;;;16.70;37.20;;;;;;8324008;28;21607;-51
2022/02/22 05:14:34;;;;;;;;;;;16.80;37.20;;;;;;8335568;28;19935;-49
2022/02/22 05:18:34;;;;;;;;;;;16.70;37.20;;;;;;8335539;28;19925;-50
2022/02/22 05:22:39;;;;;;;;;;;16.70;37.20;;;;;;8335078;28;20000;-49
2022/02/22 05:26:39;;;;;;;;;;;16.70;37.10;;;;;;8335392;28;20325;-51
2022/02/22 05:30:40;;;;;;;;;;;16.70;37.10;;;;;;8335203;28;19963;-49
2022/02/22 05:34:40;;;;;;;;;;;16.70;37.10;;;;;;8334735;28;19923;-51
2022/02/22 05:38:40;;;;;;;;;;;16.70;37.10;;;;;;8335180;28;19923;-48
2022/02/22 05:42:41;;;;;;;;;;;16.70;37.20;;;;;;8334793;28;19924;-49
2022/02/22 05:46:41;;;;;;;;;;;16.70;37.10;;;;;;8334120;28;19984;-48
2022/02/22 05:50:42;;;;;;;;;;;16.70;37.10;;;;;;8334566;28;19913;-49
2022/02/22 05:54:43;;;;;;;;;;;16.70;37.10;;;;;;8334390;28;20394;-47
2022/02/22 05:58:43;;;;;;;;;;;16.70;37.10;;;;;;8332739;28;19928;-49
2022/02/22 06:02:43;;;;;;;;;;;16.70;37.10;;;;;;8334018;28;19917;-48
2022/02/22 06:06:46;;;;;;;;;;;16.70;37.10;;;;;;8333004;28;22480;-52
2022/02/22 06:10:48;;;;;;;;;;;16.70;37.10;;;;;;8333416;28;20337;-49
2022/02/22 06:14:48;;;;;;;;;;;16.70;37.10;;;;;;8333700;28;19921;-51
2022/02/22 06:18:49;;;;;;;;;;;16.70;37.10;;;;;;8333508;28;20358;-50
2022/02/22 06:22:49;;;;;;;;;;;16.70;37.10;;;;;;8332874;28;19923;-48
2022/02/22 06:26:50;;;;;;;;;;;16.70;37.10;;;;;;8332943;28;19925;-53
2022/02/22 06:30:50;;;;;;;;;;;16.70;37.10;;;;;;8332955;28;19936;-50
2022/02/22 06:34:51;;;;;;;;;;;16.70;37.10;;;;;;8332761;28;20286;-53
2022/02/22 06:38:52;;;;;;;;;;;16.70;37.10;;;;;;8332931;28;19918;-53
2022/02/22 06:42:52;;;;;;;;;;;16.70;37.10;;;;;;8332738;28;19929;-49
2022/02/22 06:46:53;;;;;;;;;;;16.70;37.10;;;;;;8332079;28;20301;-50
2022/02/22 06:50:53;;;;;;;;;;;16.70;37.10;;;;;;8332605;28;20431;-51
2022/02/22 06:54:54;;;;;;;;;;;16.70;37.10;;;;;;8332407;28;19922;-52
2022/02/22 06:58:54;;;;;;;;;;;16.70;37.10;;;;;;8331938;28;19959;-52
2022/02/22 07:02:54;;;;;;;;;;;16.70;37.20;;;;;;8332397;28;19923;-49
2022/02/22 07:06:55;;;;;;;;;;;16.70;37.20;;;;;;8331837;28;19929;-48
2022/02/22 07:10:55;;;;;;;;;;;16.70;37.20;;;;;;8331575;28;19936;-51
2022/02/22 07:14:56;;;;;;;;;;;16.70;37.20;;;;;;8332027;28;19921;-49
2022/02/22 07:18:56;;;;;;;;;;;16.70;37.20;;;;;;8331741;28;20389;-51
2022/02/22 07:22:57;;;;;;;;;;;16.70;37.20;;;;;;8331180;28;19960;-52
2022/02/22 07:26:58;;;;;;;;;;;16.80;37.30;;;;;;8331561;28;19925;-49
2022/02/22 07:30:58;;;;;;;;;;;16.80;37.30;;;;;;8331973;28;19963;-51
2022/02/22 07:34:59;;;;;;;;;;;16.80;37.30;;;;;;8330801;28;19917;-52
2022/02/22 07:38:59;;;;;;;;;;;16.80;37.30;;;;;;8331337;28;20301;-49
2022/02/22 07:43:01;;;;;;;;;;;16.80;37.30;;;;;;8330981;28;19948;-53
2022/02/22 07:47:02;;;;;;;;;;;16.80;37.20;;;;;;8330273;28;19987;-49
2022/02/22 07:51:03;;;;;;;;;;;16.80;37.20;;;;;;8331259;28;19917;-49
2022/02/22 07:55:04;;;;;;;;;;;16.80;37.20;;;;;;8330703;28;19929;-50
2022/02/22 07:59:05;;;;;;;;;;;16.80;37.20;;;;;;8330098;28;19956;-48
2022/02/22 08:03:05;;;;;;;;;;;16.80;37.20;;;;;;8330701;28;19920;-52
2022/02/22 08:07:06;;;;;;;;;;;16.80;37.20;;;;;;8330281;28;19924;-49
2022/02/22 08:11:07;;;;;;;;;;;16.80;37.20;;;;;;8312073;28;19996;-52
2022/02/22 08:15:07;;;;;;;;;;;16.90;37.30;;;;;;8327480;28;19933;-52
2022/02/22 08:19:08;;;;;;;;;;;16.90;37.30;;;;;;8330333;28;19975;-49
2022/02/22 08:23:09;;;;;;;;;;;16.90;37.30;;;;;;8329110;28;19925;-52
2022/02/22 08:27:09;;;;;;;;;;;16.90;37.80;;;;;;8329855;28;19925;-48
2022/02/22 08:31:10;;;;;;;;;;;16.90;37.30;;;;;;8330291;28;20333;-51
2022/02/22 08:35:10;;;;;;;;;;;16.90;37.30;;;;;;8329513;28;19917;-49
2022/02/22 08:39:11;;;;;;;;;;;16.90;37.30;;;;;;8329822;28;19917;-52
2022/02/22 08:43:13;;;;;;;;;;;16.90;37.30;;;;;;8329955;28;19918;-50
2022/02/22 08:47:14;;;;;;;;;;;16.90;37.30;;;;;;8329188;28;19960;-49
2022/02/22 08:51:14;;;;;;;;;;;16.90;37.40;;;;;;8329836;28;19917;-50
2022/02/22 08:55:15;;;;;;;;;;;16.90;37.40;;;;;;8344554;28;19921;-52
2022/02/22 08:59:15;;;;;;;;;;;16.90;37.40;;;;;;8341497;28;19992;-52
2022/02/22 09:03:16;;;;;;;;;;;16.90;37.40;;;;;;8329813;28;19917;-52
2022/02/22 09:07:16;;;;;;;;;;;16.90;37.40;;;;;;8329441;28;19932;-48
2022/02/22 09:11:17;;;;;;;;;;;16.90;37.40;;;;;;8329265;28;20329;-48
2022/02/22 09:15:18;;;;;;;;;;;16.90;37.40;;;;;;8329607;28;19918;-52
2022/02/22 09:19:18;;;;;;;;;;;16.90;37.40;;;;;;8329332;28;19923;-53
2022/02/22 09:23:19;;;;;;;;;;;16.90;37.40;;;;;;8329081;28;19917;-52
2022/02/22 09:27:19;;;;;;;;;;;17.00;38.00;;;;;;8329747;28;20297;-50
2022/02/22 09:31:20;;;;;;;;;;;16.90;37.40;;;;;;8328926;28;19917;-50
2022/02/22 09:35:23;;;;;;;;;;;17.00;37.50;;;;;;8332836;28;19921;-53
2022/02/22 09:39:24;;;;;;;;;;;16.90;37.40;;;;;;8334935;28;19986;-48
2022/02/22 09:43:24;;;;;;;;;;;17.00;37.40;;;;;;8334178;28;19921;-53
2022/02/22 09:47:25;;;;;;;;;;;17.00;37.40;;;;;;8334796;28;21844;-48
2022/02/22 09:51:25;;;;;;;;;;;17.00;37.50;;;;;;8334720;28;19921;-52
2022/02/22 09:55:26;;;;;;;;;;;17.00;37.40;;;;;;8333835;28;19928;-51
2022/02/22 09:59:26;;;;;;;;;;;17.00;37.40;;;;;;8334428;28;20008;-48
2022/02/22 10:03:27;;;;;;;;;;;17.00;37.40;;;;;;8334010;28;20405;-51
2022/02/22 10:07:31;;;;;;;;;;;17.00;37.40;;;;;;8333560;28;19925;-48
2022/02/22 10:11:33;;;;;;;;;;;17.00;38.00;;;;;;8333976;28;19928;-48
2022/02/22 10:15:41;;;;;;;;;;;17.10;37.50;;;;;;8333650;28;20259;-48
2022/02/22 10:19:42;;;;;;;;;;;17.00;37.40;;;;;;8333211;28;19917;-52
2022/02/22 10:23:42;;;;;;;;;;;17.10;37.50;;;;;;8333825;28;19917;-49
2022/02/22 10:27:47;;;;;;;;;;;17.00;37.40;;;;;;8333113;28;19979;-51
2022/02/22 10:31:48;;;;;;;;;;;17.10;37.50;;;;;;8332629;28;19917;-51
2022/02/22 10:35:52;;;;;;;;;;;17.10;37.50;;;;;;8333076;28;20314;-50
2022/02/22 10:39:59;;;;;;;;;;;17.10;37.50;;;;;;8332889;28;19921;-55
2022/02/22 10:44:02;;;;;;;;;;;17.10;37.50;;;;;;8331861;28;20382;-53
2022/02/22 10:48:03;;;;;;;;;;;17.10;37.40;;;;;;8332731;28;20310;-51
2022/02/22 10:52:07;;;;;;;;;;;17.10;37.40;;;;;;8332786;28;19921;-53
2022/02/22 10:56:09;;;;;;;;;;;17.10;37.40;;;;;;8331877;28;20335;-49
2022/02/22 11:00:11;;;;;;;;;;;17.10;37.40;;;;;;8332427;28;19957;-51
2022/02/22 11:04:11;;;;;;;;;;;17.10;37.40;;;;;;8332226;28;19917;-51
2022/02/22 11:08:12;;;;;;;;;;;17.10;37.40;;;;;;8331743;28;19929;-49
2022/02/22 11:12:21;;;;;;;;;;;17.10;37.40;;;;;;8331086;28;19918;-53
2022/02/22 11:16:22;;;;;;;;;;;17.10;37.40;;;;;;8331365;28;20400;-50
2022/02/22 11:20:27;;;;;;;;;;;17.10;37.40;;;;;;8331598;28;19917;-51
2022/02/22 11:24:28;;;;;;;;;;;17.10;37.40;;;;;;8344277;28;19921;-53
2022/02/22 11:28:33;;;;;;;;;;;17.10;37.40;;;;;;8330739;28;20016;-51
2022/02/22 11:32:34;;;;;;;;;;;17.10;37.40;;;;;;8339052;28;19936;-50
2022/02/22 11:36:36;;;;;;;;;;;17.10;37.40;;;;;;8331367;28;19921;-52
2022/02/22 11:40:36;;;;;;;;;;;17.10;37.40;;;;;;8330588;28;19921;-52
2022/02/22 11:44:37;;;;;;;;;;;17.20;37.40;;;;;;8331509;28;19979;-49
2022/02/22 11:48:38;;;;;;;;;;;17.20;37.40;;;;;;8330737;28;19925;-49
2022/02/22 11:52:40;;;;;;;;;;;17.20;37.40;;;;;;8330577;28;19983;-49
2022/02/22 11:56:43;;;;;;;;;;;17.20;37.40;;;;;;8330099;28;20362;-51
2022/02/22 12:00:45;;;;;;;;;;;17.20;37.40;;;;;;8330476;28;19917;-52
2022/02/22 12:04:45;;;;;;;;;;;17.20;37.40;;;;;;8329947;28;20374;-50
2022/02/22 12:08:51;;;;;;;;;;;17.20;37.40;;;;;;8330655;28;19924;-49
2022/02/22 12:12:52;;;;;;;;;;;17.20;37.40;;;;;;8330662;28;20309;-51
2022/02/22 12:16:52;;;;;;;;;;;17.20;37.30;;;;;;8329640;28;19921;-49
2022/02/22 12:20:54;;;;;;;;;;;17.20;37.40;;;;;;8330125;28;20003;-52
2022/02/22 12:25:02;;;;;;;;;;;17.20;37.30;;;;;;8330105;28;19917;-49
2022/02/22 12:29:04;;;;;;;;;;;17.20;37.30;;;;;;8329543;28;19917;-50
2022/02/22 12:33:05;;;;;;;;;;;17.20;37.30;;;;;;8330447;28;19917;-49
2022/02/22 12:37:06;;;;;;;;;;;17.20;37.30;;;;;;8329860;28;19917;-49
2022/02/22 12:41:11;;;;;;;;;;;17.30;37.40;;;;;;8329416;28;19917;-49
2022/02/22 12:45:15;;;;;;;;;;;17.30;37.30;;;;;;8330229;28;19929;-51
2022/02/22 12:49:17;;;;;;;;;;;17.30;37.30;;;;;;8329849;28;20362;-52
2022/02/22 12:53:27;;;;;;;;;;;17.30;37.30;;;;;;8329509;28;20349;-49
2022/02/22 12:57:28;;;;;;;;;;;17.30;37.30;;;;;;8330084;28;19918;-53
2022/02/22 13:01:34;;;;;;;;;;;17.30;37.20;;;;;;8327896;28;19917;-48
2022/02/22 13:05:38;;;;;;;;;;;17.30;37.20;;;;;;8326707;28;19929;-51
2022/02/22 13:09:39;;;;;;;;;;;17.30;37.20;;;;;;8312956;28;19921;-51
2022/02/22 13:13:40;;;;;;;;;;;17.40;37.20;;;;;;8329830;28;20289;-50
2022/02/22 13:17:40;;;;;;;;;;;17.40;37.20;;;;;;8335705;28;20005;-48
2022/02/22 13:21:41;;;;;;;;;;;17.40;37.20;;;;;;8335214;28;19971;-48
2022/02/22 13:25:43;;;;;;;;;;;17.30;37.10;;;;;;8334787;28;20381;-51
2022/02/22 13:29:53;;;;;;;;;;;17.40;37.10;;;;;;8335260;28;19917;-49
2022/02/22 13:34:03;;;;;;;;;;;17.40;37.10;;;;;;8335021;28;19917;-49
2022/02/22 13:38:17;;;;;;;;;;;17.40;37.10;;;;;;8334797;28;19925;-49
2022/02/22 13:42:23;;;;;;;;;;;17.40;37.10;;;;;;8334666;28;20004;-53
2022/02/22 13:46:37;;;;;;;;;;;17.40;37.60;;;;;;8333985;28;19925;-50
2022/02/22 13:50:37;;;;;;;;;;;17.40;37.00;;;;;;8334527;28;19921;-50
2022/02/22 13:54:38;;;;;;;;;;;17.50;37.10;;;;;;8334340;28;19928;-53
2022/02/22 13:58:38;;;;;;;;;;;17.50;37.00;;;;;;8333741;28;20003;-48
2022/02/22 14:02:39;;;;;;;;;;;17.50;37.00;;;;;;8333774;28;19921;-50
2022/02/22 14:06:39;;;;;;;;;;;17.50;37.00;;;;;;8333623;28;19929;-49
2022/02/22 14:10:45;;;;;;;;;;;17.50;37.00;;;;;;8332293;28;20012;-48
2022/02/22 14:14:45;;;;;;;;;;;17.40;36.90;;;;;;8361139;28;20023;-49
2022/02/22 14:18:46;;;;;;;;;;;17.50;37.00;;;;;;8332854;28;19921;-49
2022/02/22 14:22:47;;;;;;;;;;;17.50;37.00;;;;;;8332804;28;19925;-50
2022/02/22 14:26:48;;;;;;;;;;;17.50;37.00;;;;;;8333372;28;19932;-51
2022/02/22 14:30:49;;;;;;;;;;;17.50;37.00;;;;;;8332887;28;19964;-54
2022/02/22 14:34:50;;;;;;;;;;;17.50;37.00;;;;;;8332399;28;19917;-52
2022/02/22 14:38:51;;;;;;;;;;;17.50;36.90;;;;;;8319002;28;19952;-50
2022/02/22 14:42:51;;;;;;;;;;;17.50;36.90;;;;;;8320586;28;19921;-52
2022/02/22 14:46:53;;;;;;;;;;;17.50;36.90;;;;;;8331949;28;20389;-49
2022/02/22 14:50:53;;;;;;;;;;;17.50;36.90;;;;;;8332336;28;20370;-50
2022/02/22 14:54:54;;;;;;;;;;;17.50;36.90;;;;;;8332439;28;19928;-48
2022/02/22 14:58:54;;;;;;;;;;;17.50;36.90;;;;;;8331922;28;19940;-48
2022/02/22 15:02:55;;;;;;;;;;;17.50;36.90;;;;;;8331870;28;19924;-48
2022/02/22 15:06:56;;;;;;;;;;;17.50;36.90;;;;;;8332089;28;20008;-53
2022/02/22 15:10:57;;;;;;;;;;;17.50;36.80;;;;;;8331705;28;20003;-52
2022/02/22 15:14:58;;;;;;;;;;;17.50;36.80;;;;;;8331982;28;19995;-49
2022/02/22 15:18:58;;;;;;;;;;;17.50;36.80;;;;;;8332166;28;20171;-52
2022/02/22 15:22:59;;;;;;;;;;;17.50;36.80;;;;;;8331021;28;19928;-51
2022/02/22 15:27:00;;;;;;;;;;;17.50;36.90;;;;;;8331345;28;19935;-51
2022/02/22 15:31:00;;;;;;;;;;;17.50;36.80;;;;;;8331162;28;19928;-52
2022/02/22 15:35:01;;;;;;;;;;;17.50;36.80;;;;;;8330734;28;19917;-49
2022/02/22 15:39:01;;;;;;;;;;;17.50;36.80;;;;;;8331281;28;20004;-52
2022/02/22 15:43:02;;;;;;;;;;;17.50;36.80;;;;;;8331079;28;19952;-51
2022/02/22 15:47:03;;;;;;;;;;;17.50;36.80;;;;;;8330343;28;20422;-48
2022/02/22 15:51:03;;;;;;;;;;;17.50;36.80;;;;;;8330542;28;19928;-52
2022/02/22 15:55:04;;;;;;;;;;;17.50;36.80;;;;;;8330777;28;19920;-49
2022/02/22 15:59:05;;;;;;;;;;;17.50;36.80;;;;;;8330351;28;19917;-52
2022/02/22 16:03:05;;;;;;;;;;;17.50;36.80;;;;;;8330484;28;19917;-51
2022/02/22 16:07:06;;;;;;;;;;;17.50;36.80;;;;;;8330212;28;20420;-49
2022/02/22 16:11:06;;;;;;;;;;;17.50;36.80;;;;;;8329220;28;19967;-51
2022/02/22 16:15:07;;;;;;;;;;;17.50;36.70;;;;;;8330092;28;20377;-51
2022/02/22 16:19:08;;;;;;;;;;;17.50;36.70;;;;;;8330307;28;19917;-52
2022/02/22 16:23:08;;;;;;;;;;;17.50;36.70;;;;;;8329519;28;19924;-52
2022/02/22 16:27:09;;;;;;;;;;;17.50;36.70;;;;;;8329905;28;20305;-51
2022/02/22 16:31:09;;;;;;;;;;;17.50;36.70;;;;;;8329985;28;20294;-50
2022/02/22 16:35:10;;;;;;;;;;;17.50;36.70;;;;;;8329433;28;19924;-48
2022/02/22 16:39:10;;;;;;;;;;;17.50;36.80;;;;;;8330240;28;19992;-52
2022/02/22 16:43:11;;;;;;;;;;;17.50;36.70;;;;;;8332451;28;19917;-53
2022/02/22 16:47:11;;;;;;;;;;;17.50;36.70;;;;;;8335749;28;19925;-49
2022/02/22 16:51:12;;;;;;;;;;;17.50;36.70;;;;;;8336304;28;19939;-49
2022/02/22 16:55:12;;;;;;;;;;;17.50;36.70;;;;;;8336205;28;19921;-50
2022/02/22 16:59:13;;;;;;;;;;;17.50;36.70;;;;;;8335828;28;19923;-49
2022/02/22 17:03:14;;;;;;;;;;;17.50;36.70;;;;;;8335008;28;19972;-53
2022/02/22 17:07:14;;;;;;;;;;;17.50;36.70;;;;;;8335544;28;19925;-53
2022/02/22 17:11:15;;;;;;;;;;;17.50;36.70;;;;;;8335073;28;19917;-52
2022/02/22 17:15:16;;;;;;;;;;;17.50;36.70;;;;;;8335444;28;20289;-52
2022/02/22 17:19:17;;;;;;;;;;;17.50;36.70;;;;;;8335725;28;19971;-49
2022/02/22 17:23:18;;;;;;;;;;;17.50;36.70;;;;;;8334877;28;19944;-49
2022/02/22 17:27:18;;;;;;;;;;;17.50;36.70;;;;;;8334929;28;19925;-52
2022/02/22 17:31:19;;;;;;;;;;;17.40;36.70;;;;;;8334955;28;19940;-53
2022/02/22 17:35:20;;;;;;;;;;;17.50;36.70;;;;;;8334951;28;20397;-51
2022/02/22 17:39:21;;;;;;;;;;;17.50;36.70;;;;;;8335261;28;19917;-50
2022/02/22 17:43:21;;;;;;;;;;;17.50;36.70;;;;;;8334336;28;19918;-52
2022/02/22 17:47:22;;;;;;;;;;;17.40;36.70;;;;;;8334923;28;19952;-52
2022/02/22 17:51:22;;;;;;;;;;;17.50;36.70;;;;;;8335061;28;19917;-53
2022/02/22 17:55:23;;;;;;;;;;;17.50;36.80;;;;;;8333104;28;19921;-49
2022/02/22 17:59:23;;;;;;;;;;;17.50;36.70;;;;;;8335232;28;19917;-48
2022/02/22 18:03:25;;;;;;;;;;;17.50;36.80;;;;;;8335573;28;19917;-50
2022/02/22 18:07:26;;;;;;;;;;;17.50;36.70;;;;;;8333959;28;19932;-51
2022/02/22 18:11:26;;;;;;;;;;;17.50;36.70;;;;;;8333748;28;20043;-50
2022/02/22 18:15:28;;;;;;;;;;;17.50;36.70;;;;;;8333795;28;19917;-51
2022/02/22 18:19:28;;;;;;;;;;;17.50;36.70;;;;;;8332978;28;19917;-53
2022/02/22 18:23:29;;;;;;;;;;;17.50;36.80;;;;;;8333318;28;20109;-53
2022/02/22 18:27:29;;;;;;;;;;;17.50;36.70;;;;;;8333269;28;19925;-49
2022/02/22 18:31:30;;;;;;;;;;;17.50;36.70;;;;;;8332960;28;20309;-53
2022/02/22 18:35:31;;;;;;;;;;;17.50;36.80;;;;;;8333224;28;19924;-50
2022/02/22 18:39:31;;;;;;;;;;;17.50;36.80;;;;;;8332877;28;20378;-54
2022/02/22 18:43:32;;;;;;;;;;;17.40;36.70;;;;;;8332486;28;19949;-51
2022/02/22 18:47:33;;;;;;;;;;;17.50;36.80;;;;;;8333340;28;19925;-53
2022/02/22 18:51:33;;;;;;;;;;;17.50;36.80;;;;;;8332684;28;20058;-54
2022/02/22 18:55:34;;;;;;;;;;;17.40;36.80;;;;;;8332514;28;19956;-52
2022/02/22 18:59:34;;;;;;;;;;;17.50;36.80;;;;;;8332607;28;19948;-53
2022/02/22 19:03:35;;;;;;;;;;;17.50;36.80;;;;;;8332437;28;19923;-51
2022/02/22 19:07:35;;;;;;;;;;;17.50;36.80;;;;;;8331313;28;19987;-52
2022/02/22 19:11:36;;;;;;;;;;;17.40;36.80;;;;;;8332176;28;19921;-52
2022/02/22 19:15:36;;;;;;;;;;;17.50;36.80;;;;;;8332073;28;20452;-52
2022/02/22 19:19:37;;;;;;;;;;;17.50;36.80;;;;;;8331284;28;20298;-52
2022/02/22 19:23:38;;;;;;;;;;;17.50;36.80;;;;;;8331755;28;20019;-50
2022/02/22 19:27:39;;;;;;;;;;;17.50;36.80;;;;;;8331511;28;19932;-49
2022/02/22 19:31:39;;;;;;;;;;;17.50;36.80;;;;;;8330733;28;20007;-53
2022/02/22 19:35:40;;;;;;;;;;;17.40;37.30;;;;;;8331554;28;19968;-51
2022/02/22 19:39:41;;;;;;;;;;;17.50;37.40;;;;;;8331237;28;20016;-51
2022/02/22 19:43:41;;;;;;;;;;;17.50;36.90;;;;;;8330418;28;19917;-52
2022/02/22 19:47:42;;;;;;;;;;;17.50;36.90;;;;;;8331033;28;19932;-48
2022/02/22 19:51:42;;;;;;;;;;;17.50;36.90;;;;;;8330814;28;19962;-49
2022/02/22 19:55:43;;;;;;;;;;;17.50;37.00;;;;;;8330539;28;19928;-54
2022/02/22 19:59:43;;;;;;;;;;;17.50;36.90;;;;;;8330400;28;19921;-50
2022/02/22 20:03:44;;;;;;;;;;;17.40;36.90;;;;;;8330482;28;19921;-49
2022/02/22 20:07:45;;;;;;;;;;;17.50;37.00;;;;;;8329899;28;19932;-51
2022/02/22 20:11:45;;;;;;;;;;;17.40;36.90;;;;;;8319119;28;19924;-51
2022/02/22 20:15:47;;;;;;;;;;;17.40;36.90;;;;;;8330662;28;20012;-50
2022/02/22 20:19:48;;;;;;;;;;;17.50;37.00;;;;;;8329119;28;20009;-51
2022/02/22 20:23:48;;;;;;;;;;;17.40;36.90;;;;;;8330055;28;19921;-50
2022/02/22 20:27:49;;;;;;;;;;;17.40;36.90;;;;;;8330022;28;20511;-52
2022/02/22 20:31:49;;;;;;;;;;;17.50;37.00;;;;;;8329565;28;20297;-52
2022/02/22 20:35:50;;;;;;;;;;;17.50;37.00;;;;;;8330128;28;20019;-50
2022/02/22 20:39:51;;;;;;;;;;;17.50;37.00;;;;;;8330020;28;19917;-50
2022/02/22 20:43:51;;;;;;;;;;;17.40;36.90;;;;;;8329595;28;19917;-53
2022/02/22 20:47:52;;;;;;;;;;;17.40;36.90;;;;;;8328294;28;19955;-54
2022/02/22 20:51:52;;;;;;;;;;;17.40;36.90;;;;;;8330007;28;19960;-52
2022/02/22 20:55:53;;;;;;;;;;;17.50;37.00;;;;;;8329396;28;19918;-51
2022/02/22 20:59:53;;;;;;;;;;;17.50;37.00;;;;;;8329370;28;20015;-49
2022/02/22 21:03:55;;;;;;;;;;;17.40;36.90;;;;;;8329494;28;20032;-50
2022/02/22 21:07:55;;;;;;;;;;;17.40;36.90;;;;;;8328957;28;19925;-53
2022/02/22 21:11:56;;;;;;;;;;;17.40;36.90;;;;;;8341204;28;19920;-53
2022/02/22 21:15:56;;;;;;;;;;;17.50;37.00;;;;;;8329688;28;19917;-53
2022/02/22 21:19:57;;;;;;;;;;;17.50;37.00;;;;;;8328800;28;19971;-53
2022/02/22 21:23:58;;;;;;;;;;;17.40;36.90;;;;;;8329201;28;19917;-50
2022/02/22 21:27:59;;;;;;;;;;;17.40;36.90;;;;;;8329670;28;20360;-53
2022/02/22 21:31:59;;;;;;;;;;;17.40;36.90;;;;;;8334673;28;19920;-52
2022/02/22 21:36:00;;;;;;;;;;;17.40;36.90;;;;;;8335537;28;20289;-51
2022/02/22 21:40:00;;;;;;;;;;;17.40;36.90;;;;;;8334924;28;19921;-52
2022/02/22 21:44:01;;;;;;;;;;;17.40;36.90;;;;;;8334418;28;20343;-50
2022/02/22 21:48:02;;;;;;;;;;;17.40;36.90;;;;;;8335032;28;19933;-53
2022/02/22 21:52:04;;;;;;;;;;;17.40;36.90;;;;;;8334612;28;19917;-52
2022/02/22 21:56:04;;;;;;;;;;;17.40;36.90;;;;;;8334327;28;19928;-52
2022/02/22 22:00:05;;;;;;;;;;;17.40;36.90;;;;;;8334164;28;19917;-51
2022/02/22 22:04:07;;;;;;;;;;;17.40;36.90;;;;;;8334259;28;19923;-50
2022/02/22 22:08:07;;;;;;;;;;;17.40;36.90;;;;;;8333610;28;19925;-53
2022/02/22 22:12:08;;;;;;;;;;;17.40;36.90;;;;;;8334030;28;19972;-52
2022/02/22 22:16:08;;;;;;;;;;;17.40;36.90;;;;;;8334024;28;19917;-51
2022/02/22 22:20:09;;;;;;;;;;;17.40;36.90;;;;;;8332937;28;19917;-49
2022/02/22 22:24:10;;;;;;;;;;;17.40;36.90;;;;;;8333431;28;19921;-50
2022/02/22 22:28:10;;;;;;;;;;;17.40;36.90;;;;;;8333223;28;19956;-51
2022/02/22 22:32:11;;;;;;;;;;;17.40;36.90;;;;;;8332925;28;19924;-51
2022/02/22 22:36:11;;;;;;;;;;;17.40;36.90;;;;;;8333363;28;19917;-49
2022/02/22 22:40:12;;;;;;;;;;;17.40;36.90;;;;;;8332351;28;19925;-49
2022/02/22 22:44:13;;;;;;;;;;;17.40;36.90;;;;;;8332282;28;19925;-50
2022/02/22 22:48:14;;;;;;;;;;;17.40;37.00;;;;;;8332921;28;20326;-48
2022/02/22 22:52:14;;;;;;;;;;;17.40;37.00;;;;;;8332843;28;19921;-50
2022/02/22 22:56:15;;;;;;;;;;;17.40;37.00;;;;;;8332038;28;20024;-49
2022/02/22 23:00:15;;;;;;;;;;;17.30;36.90;;;;;;8331510;28;19924;-49
2022/02/22 23:04:16;;;;;;;;;;;17.30;37.00;;;;;;8314886;28;20405;-49
2022/02/22 23:16:55;;;;;;;;;;;17.30;37.00;;;;;;8331557;28;19969;-50
2022/02/22 23:20:55;;;;;;;;;;;17.30;37.00;;;;;;8331875;28;19921;-52
2022/02/22 23:24:56;;;;;;;;;;;17.30;37.00;;;;;;8331681;28;19925;-54
2022/02/22 23:28:57;;;;;;;;;;;17.30;37.00;;;;;;8330965;28;19925;-48